Time;durP1;ratioP1;P1;durP2;ratioP2;P2;SDS_P1;SDS_P2;PMS_P1;PMS_P2;Temp;Humidity;BMP_temperature;BMP_pressure;BME280_temperature;BME280_humidity;BME280_pressure;Samples;Min_cycle;Max_cycle;Signal;HPM_P1;HPM_P2
2022/08/29 00:00:11;;;;;;;7.60;6.90;;;;;;;19.62;80.17;98846.75;4992293;28;103203;-63
2022/08/29 00:02:47;;;;;;;6.45;5.75;;;;;;;19.65;79.57;98849.91;4990635;28;102826;-63
2022/08/29 00:05:15;;;;;;;7.63;6.93;;;;;;;19.54;80.34;98847.53;4991031;28;102735;-64
2022/08/29 00:07:43;;;;;;;8.43;7.63;;;;;;;19.24;81.83;98847.25;4995512;28;103271;-64
2022/08/29 00:10:11;;;;;;;7.68;7.00;;;;;;;19.13;83.47;98850.22;4997152;28;103925;-64
2022/08/29 00:12:40;;;;;;;9.43;8.48;;;;;;;18.74;84.10;98845.34;4997160;28;103060;-64
2022/08/29 00:15:11;;;;;;;7.03;6.43;;;;;;;18.97;84.81;98846.50;4997672;28;104087;-64
2022/08/29 00:17:39;;;;;;;8.57;7.70;;;;;;;18.97;83.16;98851.00;4995478;28;104041;-64
2022/08/29 00:20:10;;;;;;;9.88;8.60;;;;;;;18.78;84.29;98852.03;4996603;28;103474;-63
2022/08/29 00:22:38;;;;;;;7.40;6.80;;;;;;;19.01;84.28;98858.53;4995125;28;103028;-63
2022/08/29 00:25:08;;;;;;;10.70;9.70;;;;;;;18.10;89.74;98860.91;4995296;28;103884;-63
2022/08/29 00:27:36;;;;;;;8.88;7.97;;;;;;;18.68;86.25;98859.34;4994894;28;103278;-63
2022/08/29 00:30:10;;;;;;;7.93;7.30;;;;;;;18.90;85.17;98864.16;4997148;28;103187;-63
2022/08/29 00:32:38;;;;;;;10.48;9.23;;;;;;;18.22;86.79;98856.97;4997235;28;102706;-63
2022/08/29 00:35:09;;;;;;;10.65;8.95;;;;;;;18.27;88.65;98857.38;4995396;28;102859;-64
2022/08/29 00:37:37;;;;;;;7.75;7.07;;;;;;;18.73;86.26;98858.88;4995214;28;103245;-63
2022/08/29 00:40:12;;;;;;;10.70;9.25;;;;;;;18.44;86.05;98853.81;4996115;28;103207;-63
2022/08/29 00:42:43;;;;;;;8.20;7.50;;;;;;;18.54;85.50;98859.94;4992422;28;102930;-63
2022/08/29 00:45:16;;;;;;;8.65;7.85;;;;;;;18.57;85.99;98856.94;4997325;28;102705;-64
2022/08/29 00:47:49;;;;;;;7.77;7.07;;;;;;;18.82;84.59;98857.94;4994485;28;103251;-64
2022/08/29 00:50:25;;;;;;;7.13;6.53;;;;;;;18.92;83.82;98853.28;4995857;28;103169;-64
2022/08/29 00:52:56;;;;;;;6.65;6.05;;;;;;;18.99;82.60;98863.22;4988007;28;102738;-63
2022/08/29 00:55:27;;;;;;;9.30;8.40;;;;;;;18.81;83.41;98857.09;4997583;28;102931;-63
2022/08/29 00:57:58;;;;;;;8.43;7.53;;;;;;;18.63;85.10;98864.34;4994581;28;103288;-64
2022/08/29 01:00:28;;;;;;;7.50;6.90;;;;;;;18.76;84.14;98862.09;4997418;28;102985;-63
2022/08/29 01:02:56;;;;;;;10.43;8.88;;;;;;;18.67;83.10;98864.84;4986706;28;102790;-63
2022/08/29 01:05:26;;;;;;;8.60;7.80;;;;;;;18.72;83.82;98871.44;4997781;28;102742;-63
2022/08/29 01:07:54;;;;;;;6.32;5.82;;;;;;;18.84;82.92;98871.97;4994437;28;104031;-63
2022/08/29 01:13:16;;;;;;;8.23;7.43;;;;;;;18.97;82.01;98872.41;4960822;28;102681;-63
2022/08/29 01:15:46;;;;;;;8.70;7.90;;;;;;;18.71;82.92;98872.44;4993963;28;102903;-63
2022/08/29 01:18:16;;;;;;;7.72;7.03;;;;;;;18.66;83.34;98877.41;4995224;28;103205;-63
2022/08/29 01:20:53;;;;;;;8.18;7.38;;;;;;;18.76;82.59;98874.63;4994510;28;103172;-64
2022/08/29 01:23:27;;;;;;;7.95;7.18;;;;;;;18.61;82.00;98871.66;4993050;28;102743;-63
2022/08/29 01:25:58;;;;;;;7.63;6.93;;;;;;;18.68;83.20;98875.41;4992924;28;102718;-63
2022/08/29 01:28:30;;;;;;;5.93;5.43;;;;;;;18.80;82.16;98871.50;4995426;28;104078;-63
2022/08/29 01:31:01;;;;;;;8.13;7.32;;;;;;;18.80;81.98;98871.50;4995583;28;103177;-64
2022/08/29 01:33:38;;;;;;;9.18;8.38;;;;;;;18.60;82.49;98880.72;4994141;28;102648;-63
2022/08/29 01:36:09;;;;;;;9.55;8.75;;;;;;;18.30;84.63;98870.44;5006451;28;103142;-63
2022/08/29 01:38:37;;;;;;;9.73;8.82;;;;;;;18.11;87.04;98873.25;4990856;28;103715;-63
2022/08/29 01:41:08;;;;;;;8.15;7.45;;;;;;;18.42;85.53;98875.38;4997549;28;103209;-63
2022/08/29 01:43:40;;;;;;;9.50;8.65;;;;;;;18.19;86.20;98876.03;4996680;28;103018;-63
2022/08/29 01:46:09;;;;;;;9.27;8.40;;;;;;;18.09;87.01;98876.09;4994031;28;103977;-63
2022/08/29 01:48:38;;;;;;;8.32;7.53;;;;;;;18.27;86.47;98884.13;4994283;28;103091;-63
2022/08/29 01:51:10;;;;;;;6.13;5.63;;;;;;;18.46;85.19;98878.56;4996790;28;103203;-63
2022/08/29 01:53:38;;;;;;;6.50;5.90;;;;;;;18.58;83.86;98881.88;5003861;28;102795;-63
2022/08/29 01:56:13;;;;;;;6.60;6.07;;;;;;;18.63;82.95;98884.91;4996094;28;102690;-63
2022/08/29 01:58:42;;;;;;;7.80;7.10;;;;;;;18.49;83.88;98878.31;4996243;28;103413;-63
2022/08/29 02:01:10;;;;;;;8.80;8.02;;;;;;;18.42;83.49;98880.72;4992716;28;103174;-63
2022/08/29 02:03:39;;;;;;;7.85;7.05;;;;;;;18.44;83.67;98883.25;4991527;28;103006;-63
2022/08/29 02:06:08;;;;;;;5.57;5.10;;;;;;;18.53;82.76;98883.16;4995666;28;102828;-63
2022/08/29 02:08:37;;;;;;;5.53;5.03;;;;;;;18.59;82.13;98884.38;4993949;28;103290;-63
2022/08/29 02:11:09;;;;;;;5.25;4.85;;;;;;;18.65;81.53;98878.41;4995654;27;103223;-63
2022/08/29 02:13:44;;;;;;;8.40;7.60;;;;;;;18.57;81.18;98875.69;4993228;28;102623;-63
2022/08/29 02:16:13;;;;;;;12.07;8.37;;;;;;;17.98;84.46;98883.50;4994467;28;102925;-63
2022/08/29 02:18:41;;;;;;;8.75;7.95;;;;;;;17.77;85.96;98881.97;4995147;28;103259;-63
2022/08/29 02:21:11;;;;;;;7.32;6.65;;;;;;;17.88;87.02;98887.09;4995451;28;103473;-63
2022/08/29 02:23:40;;;;;;;6.03;5.53;;;;;;;18.16;85.47;98881.69;4994746;28;103487;-63
2022/08/29 02:26:08;;;;;;;7.65;6.95;;;;;;;18.29;83.78;98893.66;4993408;28;104349;-63
2022/08/29 02:28:37;;;;;;;8.40;7.57;;;;;;;18.18;83.54;98883.22;4990775;28;104598;-63
2022/08/29 02:31:07;;;;;;;9.10;8.27;;;;;;;17.82;86.14;98884.22;4995651;28;103069;-63
2022/08/29 02:33:37;;;;;;;8.87;8.17;;;;;;;17.73;87.69;98885.09;4991866;28;102859;-63
2022/08/29 02:36:05;;;;;;;7.07;6.47;;;;;;;18.01;86.25;98884.06;4991508;28;102869;-63
2022/08/29 02:38:34;;;;;;;6.72;6.13;;;;;;;18.17;84.67;98878.00;4991855;28;103220;-63
2022/08/29 02:41:03;;;;;;;7.05;6.45;;;;;;;18.23;84.01;98875.56;4991015;28;103302;-63
2022/08/29 02:43:31;;;;;;;8.00;7.30;;;;;;;18.20;83.84;98875.88;4995455;28;102743;-63
2022/08/29 02:45:59;;;;;;;8.63;7.93;;;;;;;18.11;84.05;98868.75;4994084;28;103868;-63
2022/08/29 02:48:29;;;;;;;8.82;7.93;;;;;;;18.05;84.71;98871.22;4991494;28;103275;-62
2022/08/29 02:50:58;;;;;;;6.20;5.70;;;;;;;18.15;84.52;98875.50;4994468;28;103254;-63
2022/08/29 02:53:30;;;;;;;5.70;5.20;;;;;;;18.24;83.46;98879.06;4993108;28;102635;-63
2022/08/29 02:55:58;;;;;;;7.73;7.03;;;;;;;18.23;82.83;98877.38;4994406;28;102939;-62
2022/08/29 02:58:26;;;;;;;9.60;8.68;;;;;;;17.69;84.67;98873.88;4999574;28;104390;-63
2022/08/29 03:00:55;;;;;;;10.05;9.02;;;;;;;17.01;89.68;98877.88;4993990;28;103208;-63
2022/08/29 03:03:23;;;;;;;8.68;7.35;;;;;;;17.28;89.86;98877.91;4993763;28;103412;-63
2022/08/29 03:05:53;;;;;;;7.28;6.68;;;;;;;17.66;87.67;98874.19;4993525;28;102711;-63
2022/08/29 03:08:21;;;;;;;6.63;6.00;;;;;;;17.86;85.43;98869.53;4989877;28;103240;-63
2022/08/29 03:10:52;;;;;;;6.78;6.15;;;;;;;17.94;84.04;98873.13;4994179;28;103209;-63
2022/08/29 03:13:20;;;;;;;7.97;7.18;;;;;;;17.86;83.95;98869.53;4994873;28;102685;-63
2022/08/29 03:15:48;;;;;;;6.68;6.18;;;;;;;17.79;84.50;98874.66;4995488;28;105035;-63
2022/08/29 03:18:16;;;;;;;7.47;6.77;;;;;;;17.80;84.60;98880.81;4985586;28;104355;-63
2022/08/29 03:20:46;;;;;;;6.50;5.90;;;;;;;17.82;84.25;98876.19;4992610;28;103611;-62
2022/08/29 03:23:18;;;;;;;6.18;5.63;;;;;;;17.91;83.46;98870.75;4990152;28;102905;-63
2022/08/29 03:25:46;;;;;;;7.73;7.03;;;;;;;17.95;83.12;98871.28;4995571;28;102876;-63
2022/08/29 03:28:14;;;;;;;6.30;5.70;;;;;;;18.00;82.71;98866.31;4993517;28;103247;-63
2022/08/29 03:30:43;;;;;;;5.80;5.30;;;;;;;17.98;82.75;98872.81;4993307;28;103464;-63
2022/08/29 03:33:11;;;;;;;5.80;5.30;;;;;;;18.02;82.12;98874.19;4992848;28;103033;-63
2022/08/29 03:35:39;;;;;;;5.38;4.97;;;;;;;18.00;82.26;98881.50;4995248;28;102693;-63
2022/08/29 03:38:07;;;;;;;5.32;4.93;;;;;;;17.99;82.19;98871.84;4994948;28;103495;-63
2022/08/29 03:40:36;;;;;;;6.20;5.70;;;;;;;17.92;82.45;98875.13;4992654;28;102969;-63
2022/08/29 03:43:04;;;;;;;5.78;5.30;;;;;;;17.90;82.48;98877.13;4989739;28;102682;-63
2022/08/29 03:45:32;;;;;;;5.30;4.80;;;;;;;17.94;82.03;98878.47;5000665;28;102712;-63
2022/08/29 03:48:00;;;;;;;5.55;4.95;;;;;;;17.95;81.88;98882.84;4994117;28;103266;-63
2022/08/29 03:50:28;;;;;;;5.05;4.65;;;;;;;17.95;81.75;98890.84;4993768;28;103188;-63
2022/08/29 03:52:56;;;;;;;5.40;4.90;;;;;;;17.98;81.38;98883.50;4994843;28;102902;-62
2022/08/29 03:55:24;;;;;;;5.60;5.20;;;;;;;17.96;81.03;98892.50;4991452;28;103704;-63
2022/08/29 03:57:55;;;;;;;7.00;6.32;;;;;;;17.88;81.32;98889.75;4994815;28;103946;-63
2022/08/29 04:00:24;;;;;;;6.72;6.03;;;;;;;17.85;81.21;98895.41;4992470;28;103199;-62
2022/08/29 04:02:54;;;;;;;7.20;6.47;;;;;;;17.79;81.54;98893.38;4991202;28;102788;-63
2022/08/29 04:05:22;;;;;;;7.22;6.60;;;;;;;17.46;83.57;98882.44;4993355;28;103890;-63
2022/08/29 04:07:52;;;;;;;6.70;6.07;;;;;;;17.30;83.95;98883.94;4993118;28;104256;-63
2022/08/29 04:10:23;;;;;;;7.35;6.75;;;;;;;17.40;84.17;98895.38;4993090;28;103953;-63
2022/08/29 04:12:52;;;;;;;8.13;7.25;;;;;;;17.24;84.32;98889.00;4994049;28;103059;-63
2022/08/29 04:15:24;;;;;;;7.60;6.78;;;;;;;17.38;84.00;98891.19;4988592;28;102717;-63
2022/08/29 04:17:54;;;;;;;5.50;5.00;;;;;;;17.52;83.36;98888.00;4992066;28;103282;-63
2022/08/29 04:20:24;;;;;;;5.80;5.30;;;;;;;17.62;82.40;98888.84;4990626;28;103137;-63
2022/08/29 04:22:54;;;;;;;4.87;4.37;;;;;;;17.65;82.15;98888.53;4993551;28;102982;-63
2022/08/29 04:25:25;;;;;;;7.78;7.07;;;;;;;17.38;82.65;98893.84;4991570;28;102793;-72
2022/08/29 04:27:56;;;;;;;6.28;5.68;;;;;;;17.34;83.84;98896.00;4992710;28;103419;-73
2022/08/29 04:30:26;;;;;;;5.50;5.00;;;;;;;17.48;83.04;98905.34;4991989;28;103231;-62
2022/08/29 04:32:55;;;;;;;7.03;6.35;;;;;;;17.39;82.39;98906.22;4992743;28;102679;-63
2022/08/29 04:35:23;;;;;;;8.35;7.20;;;;;;;17.19;83.26;98907.31;4991298;28;102615;-63
2022/08/29 04:37:51;;;;;;;5.25;4.82;;;;;;;17.35;83.04;98905.69;4993226;28;103266;-72
2022/08/29 04:40:21;;;;;;;5.82;5.32;;;;;;;17.44;82.39;98906.63;4991696;28;103185;-72
2022/08/29 04:42:50;;;;;;;5.40;4.93;;;;;;;17.49;82.00;98899.00;4994336;28;102636;-63
2022/08/29 04:45:22;;;;;;;8.60;6.80;;;;;;;17.46;81.51;98909.97;4992855;28;104053;-72
2022/08/29 04:47:54;;;;;;;7.18;6.53;;;;;;;17.15;83.79;98906.75;4994657;28;103245;-63
2022/08/29 04:50:23;;;;;;;5.63;5.23;;;;;;;17.27;83.59;98910.06;4987577;28;103357;-63
2022/08/29 04:52:55;;;;;;;7.60;6.85;;;;;;;17.15;84.17;98906.75;4992164;28;102958;-63
2022/08/29 04:55:23;;;;;;;7.28;6.38;;;;;;;17.21;84.09;98902.66;4977186;27;102935;-63
2022/08/29 04:57:55;;;;;;;7.00;6.30;;;;;;;17.15;83.68;98903.28;5013640;27;104324;-63
2022/08/29 05:00:27;;;;;;;7.78;6.90;;;;;;;17.09;83.64;98906.53;5016259;27;103276;-72
2022/08/29 05:02:58;;;;;;;8.40;7.50;;;;;;;16.93;84.85;98911.63;5022840;27;103005;-72
2022/08/29 05:05:27;;;;;;;8.52;7.80;;;;;;;16.76;85.77;98906.06;5001585;27;102792;-72
2022/08/29 05:07:55;;;;;;;7.65;6.85;;;;;;;16.98;86.27;98912.03;5016474;27;103323;-72
2022/08/29 05:10:25;;;;;;;5.50;5.00;;;;;;;17.26;84.76;98921.75;5015185;27;103187;-71
2022/08/29 05:12:53;;;;;;;6.57;5.97;;;;;;;17.40;83.88;98926.63;5018826;27;103073;-72
2022/08/29 05:15:21;;;;;;;8.10;6.88;;;;;;;17.38;83.44;98923.22;5016195;27;102995;-72
2022/08/29 05:17:49;;;;;;;9.43;7.70;;;;;;;17.06;85.55;98922.81;5010703;28;103290;-70
2022/08/29 05:20:18;;;;;;;6.45;5.85;;;;;;;17.23;85.85;98924.72;5007023;27;103248;-62
2022/08/29 05:22:46;;;;;;;6.30;5.70;;;;;;;17.50;84.45;98935.41;5002848;28;102930;-62
2022/08/29 05:25:15;;;;;;;6.53;6.03;;;;;;;17.59;84.00;98931.88;5015548;27;103786;-64
2022/08/29 05:27:45;;;;;;;6.95;6.35;;;;;;;17.55;84.18;98921.63;5016368;27;104147;-63
2022/08/29 05:30:15;;;;;;;5.80;5.00;;;;;;;17.71;83.79;98936.00;5014961;27;103028;-63
2022/08/29 05:33:05;;;;;;;5.32;4.80;;;;;;;17.83;82.80;98934.81;5012634;27;102685;-63
2022/08/29 05:35:35;;;;;;;5.80;5.30;;;;;;;17.94;82.37;98931.91;5017556;28;103269;-62
2022/08/29 05:38:03;;;;;;;5.95;5.45;;;;;;;18.01;82.58;98928.66;5004328;28;103306;-62
2022/08/29 05:40:37;;;;;;;5.60;4.90;;;;;;;18.08;82.38;98929.75;5000322;27;104130;-63
2022/08/29 05:43:05;;;;;;;5.00;4.60;;;;;;;18.20;82.34;98931.16;5011805;27;102778;-62
2022/08/29 05:45:33;;;;;;;5.83;5.23;;;;;;;18.31;81.35;98931.78;5008839;27;103990;-70
2022/08/29 05:48:03;;;;;;;5.85;5.35;;;;;;;18.36;81.39;98931.31;5012198;27;103279;-72
2022/08/29 05:50:38;;;;;;;5.78;5.28;;;;;;;18.37;81.79;98933.84;5013308;27;103218;-72
2022/08/29 05:53:10;;;;;;;5.38;4.88;;;;;;;18.50;81.45;98936.13;5014291;28;103125;-71
2022/08/29 05:55:41;;;;;;;5.32;4.80;;;;;;;18.62;80.47;98940.25;5002010;27;104395;-63
2022/08/29 05:58:13;;;;;;;5.20;4.80;;;;;;;18.69;80.52;98938.66;5013096;27;103353;-63
2022/08/29 06:00:44;;;;;;;5.45;4.97;;;;;;;18.77;79.56;98936.03;5010254;28;103198;-64
2022/08/29 06:03:13;;;;;;;6.13;5.57;;;;;;;18.86;78.76;98943.09;5007633;27;102968;-63
2022/08/29 06:05:43;;;;;;;5.38;4.90;;;;;;;18.95;78.70;98950.19;5008920;27;104359;-63
2022/08/29 06:08:11;;;;;;;7.43;5.18;;;;;;;19.01;79.09;98954.91;5007588;27;104270;-63
2022/08/29 06:10:42;;;;;;;5.03;4.63;;;;;;;19.09;78.79;98952.28;5007983;27;103216;-63
2022/08/29 06:13:10;;;;;;;7.95;6.50;;;;;;;18.76;74.85;98961.09;4994258;28;103389;-62
2022/08/29 06:15:43;;;;;;;8.27;6.85;;;;;;;18.31;76.04;98957.69;4998331;27;102875;-63
2022/08/29 06:18:12;;;;;;;8.63;6.53;;;;;;;18.65;75.79;98960.50;5000151;27;103003;-71
2022/08/29 06:20:41;;;;;;;8.43;6.95;;;;;;;18.32;77.30;98962.88;5011603;27;103653;-71
2022/08/29 06:23:10;;;;;;;8.88;6.55;;;;;;;18.74;76.03;98964.94;4990863;27;102745;-71
2022/08/29 06:25:38;;;;;;;7.72;5.68;;;;;;;19.03;75.17;98963.63;5004547;27;104300;-71
2022/08/29 06:28:08;;;;;;;6.18;5.35;;;;;;;19.11;74.82;98960.19;5006999;27;104056;-71
2022/08/29 06:30:36;;;;;;;9.35;6.40;;;;;;;19.10;75.41;98964.69;5013984;27;103587;-71
2022/08/29 06:33:04;;;;;;;8.60;6.93;;;;;;;18.59;78.01;98967.31;5014501;28;103140;-71
2022/08/29 06:35:32;;;;;;;9.05;7.43;;;;;;;18.63;76.84;98966.03;5001369;28;102774;-71
2022/08/29 06:38:00;;;;;;;11.68;6.95;;;;;;;19.02;75.32;98966.47;5015700;27;103249;-72
2022/08/29 06:40:29;;;;;;;7.28;6.20;;;;;;;19.33;74.09;98970.34;5013526;27;103166;-72
2022/08/29 06:42:57;;;;;;;6.63;5.30;;;;;;;19.55;74.28;98963.59;5012625;27;102810;-63
2022/08/29 06:45:25;;;;;;;10.07;6.28;;;;;;;19.62;72.58;98967.34;5006213;27;103189;-63
2022/08/29 06:47:55;;;;;;;7.75;6.10;;;;;;;19.68;72.12;98961.31;5012275;27;103265;-72
2022/08/29 06:50:23;;;;;;;9.53;6.80;;;;;;;19.59;71.77;98973.03;5013209;28;103251;-72
2022/08/29 06:52:51;;;;;;;9.20;6.60;;;;;;;19.57;73.43;98972.31;5012883;28;103260;-63
2022/08/29 06:55:22;;;;;;;8.43;6.13;;;;;;;20.02;72.10;98967.44;5000714;28;102761;-63
2022/08/29 06:57:52;;;;;;;9.63;6.63;;;;;;;19.88;72.43;98976.13;5001748;28;104013;-63
2022/08/29 07:00:21;;;;;;;8.83;7.27;;;;;;;19.34;73.86;98982.72;5013774;27;103452;-63
2022/08/29 07:02:49;;;;;;;8.90;7.22;;;;;;;19.04;76.60;98964.47;5012205;27;102718;-71
2022/08/29 07:05:20;;;;;;;8.63;7.37;;;;;;;19.57;73.97;98966.97;4999876;27;103731;-71
2022/08/29 07:07:48;;;;;;;10.30;7.55;;;;;;;19.36;74.17;98974.53;5015046;27;103253;-70
2022/08/29 07:10:16;;;;;;;11.50;8.48;;;;;;;18.89;75.92;98976.78;5015679;27;103771;-63
2022/08/29 07:12:50;;;;;;;9.45;7.88;;;;;;;19.27;74.60;98975.50;5011061;28;102647;-63
2022/08/29 07:15:20;;;;;;;7.30;6.60;;;;;;;20.02;73.50;98978.19;5013795;27;104333;-64
2022/08/29 07:17:49;;;;;;;8.23;7.43;;;;;;;20.15;73.06;98975.84;5011019;27;104656;-64
2022/08/29 07:20:20;;;;;;;9.95;7.40;;;;;;;20.09;72.95;98973.84;5010876;28;103221;-64
2022/08/29 07:22:50;;;;;;;9.40;8.15;;;;;;;20.18;72.56;98978.22;5015889;27;102615;-63
2022/08/29 07:25:20;;;;;;;8.40;7.60;;;;;;;20.80;71.43;98981.31;5005534;28;103972;-64
2022/08/29 07:27:49;;;;;;;10.40;8.20;;;;;;;21.14;69.83;98987.34;5015144;27;103078;-63
2022/08/29 07:30:22;;;;;;;11.10;8.57;;;;;;;20.62;70.19;98986.03;5013440;28;103345;-70
2022/08/29 07:32:50;;;;;;;10.13;8.77;;;;;;;20.69;69.24;98984.31;5015866;28;103049;-64
2022/08/29 07:35:19;;;;;;;9.63;7.60;;;;;;;21.24;68.27;98988.03;5015668;28;104371;-70
2022/08/29 07:37:57;;;;;;;9.05;7.80;;;;;;;21.37;68.17;98982.94;5010349;28;103238;-64
2022/08/29 07:40:25;;;;;;;6.30;5.80;;;;;;;22.13;66.56;98984.16;5015877;27;103278;-64
2022/08/29 07:42:53;;;;;;;10.25;7.10;;;;;;;22.37;66.55;98987.53;5015753;28;102588;-64
2022/08/29 07:45:23;;;;;;;10.10;7.22;;;;;;;22.21;65.81;98982.25;5016869;27;104114;-65
2022/08/29 07:47:51;;;;;;;8.80;7.05;;;;;;;22.29;65.06;98989.41;5013266;28;103458;-64
2022/08/29 07:50:22;;;;;;;8.23;7.03;;;;;;;22.59;63.39;98993.09;5009447;27;102976;-63
2022/08/29 07:52:51;;;;;;;8.30;7.20;;;;;;;22.45;64.47;98992.03;4994491;28;102808;-63
2022/08/29 07:55:21;;;;;;;8.48;7.15;;;;;;;22.68;65.19;98990.19;5009435;27;103161;-63
2022/08/29 07:57:51;;;;;;;9.43;7.83;;;;;;;22.32;64.02;98984.53;5004237;28;103362;-64
2022/08/29 08:00:20;;;;;;;8.35;7.38;;;;;;;22.48;64.02;98987.09;5014003;28;103697;-63
2022/08/29 08:02:50;;;;;;;8.30;7.22;;;;;;;22.16;65.08;98981.94;5002778;28;102808;-63
2022/08/29 08:05:18;;;;;;;9.85;7.25;;;;;;;22.17;65.95;98983.63;5008911;28;103012;-63
2022/08/29 08:07:48;;;;;;;10.70;6.67;;;;;;;23.24;63.07;98978.06;5014717;27;103321;-63
2022/08/29 08:10:23;;;;;;;9.00;6.70;;;;;;;23.14;63.33;98985.56;5015851;28;103223;-63
2022/08/29 08:12:51;;;;;;;10.03;6.73;;;;;;;23.50;62.58;98983.88;5012710;27;103008;-63
2022/08/29 08:15:20;;;;;;;10.63;7.13;;;;;;;23.73;60.71;98988.31;5010497;28;103421;-63
2022/08/29 08:17:50;;;;;;;9.85;7.75;;;;;;;22.88;63.37;98998.59;5014499;27;103041;-63
2022/08/29 08:20:18;;;;;;;6.45;5.85;;;;;;;24.73;59.64;98985.53;5008015;28;103512;-63
2022/08/29 08:22:45;;;;;;;6.90;6.20;;;;;;;25.17;57.67;98984.50;5012356;28;104671;-63
2022/08/29 08:25:13;;;;;;;9.63;7.70;;;;;;;23.91;60.60;98988.78;4998979;28;103895;-63
2022/08/29 08:27:41;;;;;;;6.95;5.95;;;;;;;25.62;58.91;98981.28;5002332;28;103298;-66
2022/08/29 08:30:11;;;;;;;7.90;6.77;;;;;;;25.47;57.11;98983.25;5002704;28;103402;-63
2022/08/29 08:32:40;;;;;;;9.32;6.90;;;;;;;25.78;58.68;98982.81;5005799;28;103019;-63
2022/08/29 08:35:15;;;;;;;8.05;6.72;;;;;;;26.43;53.41;98982.25;5014771;28;102748;-63
2022/08/29 08:37:43;;;;;;;8.60;6.70;;;;;;;26.21;54.47;98986.16;5011899;27;103312;-63
2022/08/29 08:40:19;;;;;;;10.40;7.20;;;;;;;26.35;53.15;98982.44;5012378;28;104531;-63
2022/08/29 08:42:49;;;;;;;10.35;6.20;;;;;;;26.72;51.11;98995.44;5013367;28;102913;-63
2022/08/29 08:45:18;;;;;;;9.30;6.72;;;;;;;26.29;53.94;98983.25;5018735;27;102701;-63
2022/08/29 08:47:50;;;;;;;7.40;6.57;;;;;;;26.84;53.33;98991.09;5014695;28;103260;-63
2022/08/29 08:50:26;;;;;;;8.00;6.67;;;;;;;26.73;53.64;98985.41;5013464;28;103198;-65
2022/08/29 08:52:59;;;;;;;6.70;6.00;;;;;;;27.66;53.00;98982.47;5009945;28;103751;-67
2022/08/29 08:55:39;;;;;;;7.13;6.28;;;;;;;27.97;51.51;98977.16;5016156;28;102644;-64
2022/08/29 08:58:15;;;;;;;10.05;6.47;;;;;;;28.48;50.96;98981.72;4998753;28;104151;-67
2022/08/29 09:00:46;;;;;;;7.00;6.30;;;;;;;28.68;51.26;98979.75;5015604;27;103188;-65
2022/08/29 09:03:57;;;;;;;8.90;7.15;;;;;;;26.88;51.99;98989.63;5011794;28;102701;-65
2022/08/29 09:06:49;;;;;;;8.05;6.45;;;;;;;27.61;53.35;98982.28;5011020;28;103010;-65
2022/08/29 09:09:26;;;;;;;9.00;7.47;;;;;;;27.49;51.50;98982.09;5016582;28;103267;-64
2022/08/29 09:12:06;;;;;;;7.90;7.10;;;;;;;27.10;54.24;98987.56;5017117;28;103220;-64
2022/08/29 09:14:46;;;;;;;10.85;7.38;;;;;;;27.48;53.09;98985.03;5013303;28;102941;-64
2022/08/29 09:17:20;;;;;;;9.18;7.25;;;;;;;27.01;51.92;98989.63;5011752;28;102618;-65
2022/08/29 09:19:49;;;;;;;8.37;7.57;;;;;;;27.50;51.24;98977.53;5017911;28;103641;-67
2022/08/29 09:22:23;;;;;;;7.18;6.47;;;;;;;28.16;51.28;98978.97;5021616;27;103219;-65
2022/08/29 09:24:56;;;;;;;7.90;6.85;;;;;;;28.69;47.63;98984.13;5017794;28;102964;-67
2022/08/29 09:27:29;;;;;;;8.40;6.60;;;;;;;28.10;51.12;98989.84;5001589;28;103061;-65
2022/08/29 09:30:04;;;;;;;6.03;5.50;;;;;;;28.64;49.34;98975.78;5016660;27;103264;-63
2022/08/29 09:32:34;;;;;;;7.93;7.03;;;;;;;27.77;50.29;98978.25;4999446;28;103201;-62
2022/08/29 09:35:18;;;;;;;7.13;6.22;;;;;;;27.79;49.96;98974.28;5001709;28;102925;-63
2022/08/29 09:37:55;;;;;;;8.98;6.35;;;;;;;28.05;49.81;98971.50;5014214;28;102853;-62
2022/08/29 09:40:23;;;;;;;6.47;5.45;;;;;;;28.91;49.51;98971.84;5015206;27;103285;-62
2022/08/29 09:43:01;;;;;;;5.45;4.93;;;;;;;30.20;46.79;98971.78;5014560;28;104149;-63
2022/08/29 09:45:29;;;;;;;6.60;5.45;;;;;;;30.08;46.91;98974.44;5014609;27;102758;-62
2022/08/29 09:48:09;;;;;;;9.90;6.75;;;;;;;26.85;50.89;98984.63;5009798;28;104034;-62
2022/08/29 09:50:38;;;;;;;11.82;7.28;;;;;;;26.62;52.82;98984.16;5016417;28;102566;-74
2022/08/29 09:53:10;;;;;;;8.63;6.80;;;;;;;26.11;52.67;98985.66;5014507;28;103170;-74
2022/08/29 09:55:52;;;;;;;6.00;5.10;;;;;;;28.17;50.15;98975.22;5014589;28;102680;-74
2022/08/29 09:58:29;;;;;;;6.85;5.75;;;;;;;29.04;48.33;98971.72;5015354;27;102936;-77
2022/08/29 10:01:02;;;;;;;7.78;6.53;;;;;;;28.91;47.30;98960.97;5013634;28;103240;-74
2022/08/29 10:03:38;;;;;;;6.63;5.47;;;;;;;28.70;48.50;98969.47;5016230;28;103941;-77
2022/08/29 10:06:13;;;;;;;8.57;5.50;;;;;;;28.26;49.27;98969.53;5016481;27;102763;-74
2022/08/29 10:08:58;;;;;;;6.18;4.88;;;;;;;29.66;45.41;98964.44;5018078;28;104219;-74
2022/08/29 10:11:30;;;;;;;6.10;4.63;;;;;;;30.14;45.81;98967.25;5011756;28;103308;-74
2022/08/29 10:14:03;;;;;;;8.82;5.97;;;;;;;27.79;49.48;98970.75;5015368;27;102607;-75
2022/08/29 10:16:40;;;;;;;6.83;5.03;;;;;;;28.46;48.62;98962.09;5017054;28;102563;-74
2022/08/29 10:19:15;;;;;;;7.77;6.00;;;;;;;27.76;48.96;98969.31;5016653;28;104246;-75
2022/08/29 10:21:53;;;;;;;8.35;4.95;;;;;;;28.17;49.17;98958.94;5017429;27;103923;-74
2022/08/29 10:24:44;;;;;;;7.53;5.37;;;;;;;27.90;49.48;98967.38;5012436;28;103251;-75
2022/08/29 10:27:23;;;;;;;5.60;4.80;;;;;;;28.62;47.47;98967.00;5014273;28;102988;-75
2022/08/29 10:30:03;;;;;;;5.47;4.60;;;;;;;29.81;47.24;98971.19;5014216;27;103848;-73
2022/08/29 10:32:57;;;;;;;5.80;4.70;;;;;;;30.03;44.79;98971.56;5014649;28;103747;-74
2022/08/29 10:35:29;;;;;;;9.80;5.43;;;;;;;27.76;48.06;98977.47;5013365;28;104004;-62
2022/08/29 10:38:00;;;;;;;8.60;6.10;;;;;;;26.64;51.44;98968.50;5015403;27;103376;-63
2022/08/29 10:40:37;;;;;;;6.82;5.07;;;;;;;28.40;47.74;98957.53;5015556;28;104467;-62
2022/08/29 10:43:33;;;;;;;6.22;5.28;;;;;;;28.18;48.18;98957.84;5016824;27;104065;-62
2022/08/29 10:46:14;;;;;;;5.23;4.70;;;;;;;29.41;47.18;98960.94;5013627;28;103331;-62
2022/08/29 10:48:48;;;;;;;6.03;5.07;;;;;;;29.23;47.64;98954.41;5012743;28;102708;-62
2022/08/29 10:51:22;;;;;;;6.50;4.50;;;;;;;29.64;45.27;98961.13;5001295;28;102836;-62
2022/08/29 10:53:55;;;;;;;6.57;5.00;;;;;;;28.12;46.80;98961.47;5011029;27;103354;-63
2022/08/29 10:56:28;;;;;;;5.47;4.10;;;;;;;28.96;46.13;98957.56;5015037;28;103226;-76
2022/08/29 10:59:06;;;;;;;5.05;4.47;;;;;;;29.22;43.83;98952.75;5014890;28;102640;-62
2022/08/29 11:01:40;;;;;;;5.60;4.75;;;;;;;27.86;45.94;98956.13;5014700;28;102665;-65
2022/08/29 11:04:17;;;;;;;8.15;4.75;;;;;;;27.78;45.79;98956.34;5010889;28;103608;-65
2022/08/29 11:06:53;;;;;;;4.75;4.15;;;;;;;28.25;46.18;98941.53;5014382;28;103964;-63
2022/08/29 11:09:25;;;;;;;6.30;4.32;;;;;;;29.06;46.26;98950.56;5005341;28;102630;-65
2022/08/29 11:12:15;;;;;;;6.15;4.30;;;;;;;28.69;45.27;98944.19;5002723;28;102948;-65
2022/08/29 11:14:53;;;;;;;6.20;4.40;;;;;;;28.24;45.70;98937.13;5014636;28;103612;-65
2022/08/29 11:17:29;;;;;;;6.65;4.32;;;;;;;28.57;45.86;98939.66;5011046;28;103349;-62
2022/08/29 11:20:03;;;;;;;5.90;4.32;;;;;;;28.03;45.78;98935.59;5010295;28;102792;-62
2022/08/29 11:22:35;;;;;;;6.80;4.70;;;;;;;28.00;46.84;98933.28;5015683;28;103191;-62
2022/08/29 11:25:09;;;;;;;6.25;4.70;;;;;;;27.12;47.40;98936.66;5012382;27;103310;-62
2022/08/29 11:27:51;;;;;;;4.90;3.92;;;;;;;29.02;44.63;98924.06;5000822;28;103888;-62
2022/08/29 11:30:32;;;;;;;7.50;3.75;;;;;;;28.52;45.86;98921.28;5012862;27;102674;-64
2022/08/29 11:33:15;;;;;;;7.38;4.30;;;;;;;29.07;45.39;98925.06;5006207;27;102852;-62
2022/08/29 11:35:58;;;;;;;4.53;3.60;;;;;;;29.87;42.13;98923.16;5009373;28;103264;-62
2022/08/29 11:39:14;;;;;;;4.23;3.70;;;;;;;30.17;41.77;98923.19;5009084;28;103207;-62
2022/08/29 11:41:45;;;;;;;5.43;4.10;;;;;;;30.68;41.05;98920.75;5001851;28;102929;-62
2022/08/29 11:44:23;;;;;;;5.45;3.72;;;;;;;30.27;40.92;98918.00;5003662;27;102768;-62
2022/08/29 11:46:52;;;;;;;4.32;3.40;;;;;;;31.23;40.01;98913.13;5012328;28;103257;-64